Time;durP1;ratioP1;P1;durP2;ratioP2;P2;SDS_P1;SDS_P2;PMS_P1;PMS_P2;Temp;Humidity;BMP_temperature;BMP_pressure;BME280_temperature;BME280_humidity;BME280_pressure;Samples;Min_cycle;Max_cycle;Signal;HPM_P1;HPM_P2
2024/02/24 00:01:36;;;;;;;;;;;;;;;;;;2199996;66;2359;-19
2024/02/24 00:04:07;;;;;;;;;;;;;;;;;;2198810;59;1818;-19
2024/02/24 00:06:37;;;;;;;;;;;;;;;;;;2195976;66;2148;-19
2024/02/24 00:09:09;;;;;;;;;;;;;;;;;;2197419;66;2627;-19
2024/02/24 00:11:39;;;;;;;;;;;;;;;;;;2202644;66;1925;-19
2024/02/24 00:14:10;;;;;;;;;;;;;;;;;;2199279;66;2967;-20
2024/02/24 00:16:40;;;;;;;;;;;;;;;;;;2200166;59;1850;-19
2024/02/24 00:19:11;;;;;;;;;;;;;;;;;;2198658;66;1824;-19
2024/02/24 00:21:41;;;;;;;;;;;;;;;;;;2199045;66;2394;-19
2024/02/24 00:24:14;;;;;;;;;;;;;;;;;;2198531;66;3256;-19
2024/02/24 00:26:46;;;;;;;;;;;;;;;;;;2199245;66;2699;-19
2024/02/24 00:29:17;;;;;;;;;;;;;;;;;;2198335;66;2971;-19
2024/02/24 00:31:47;;;;;;;;;;;;;;;;;;2197040;59;1948;-20
2024/02/24 00:34:18;;;;;;;;;;;;;;;;;;2199395;66;2910;-19
2024/02/24 00:36:49;;;;;;;;;;;;;;;;;;2194738;67;1798;-20
2024/02/24 00:39:19;;;;;;;;;;;;;;;;;;2195730;59;2018;-19
2024/02/24 00:41:52;;;;;;;;;;;;;;;;;;2196410;66;2619;-19
2024/02/24 00:44:23;;;;;;;;;;;;;;;;;;2198733;66;2021;-19
2024/02/24 00:46:53;;;;;;;;;;;;;;;;;;2199964;59;1823;-19
2024/02/24 00:49:25;;;;;;;;;;;;;;;;;;2199250;66;1976;-19
2024/02/24 00:51:56;;;;;;;;;;;;;;;;;;2199902;66;1999;-19
2024/02/24 00:54:26;;;;;;;;;;;;;;;;;;2199788;66;2737;-19
2024/02/24 00:56:57;;;;;;;;;;;;;;;;;;2197533;66;1907;-19
2024/02/24 00:59:27;;;;;;;;;;;;;;;;;;2197376;66;1793;-19
2024/02/24 01:02:00;;;;;;;;;;;;;;;;;;2200823;66;2901;-19
2024/02/24 01:04:31;;;;;;;;;;;;;;;;;;2196435;59;2756;-19
2024/02/24 01:07:01;;;;;;;;;;;;;;;;;;2197384;66;1787;-20
2024/02/24 01:09:32;;;;;;;;;;;;;;;;;;2199322;66;2916;-19
2024/02/24 01:12:03;;;;;;;;;;;;;;;;;;2198797;66;2674;-20
2024/02/24 01:14:38;;;;;;;;;;;;;;;;;;2197215;66;2555;-19
2024/02/24 01:17:13;;;;;;;;;;;;;;;;;;2209987;66;2679;-19
2024/02/24 01:19:44;;;;;;;;;;;;;;;;;;2199825;66;1921;-19
2024/02/24 01:22:16;;;;;;;;;;;;;;;;;;2200120;66;2602;-20
2024/02/24 01:24:48;;;;;;;;;;;;;;;;;;2200447;59;1974;-19
2024/02/24 01:27:19;;;;;;;;;;;;;;;;;;2199080;66;1864;-19
2024/02/24 01:29:50;;;;;;;;;;;;;;;;;;2200131;66;2907;-19
2024/02/24 01:32:23;;;;;;;;;;;;;;;;;;2197139;59;2737;-20
2024/02/24 01:34:55;;;;;;;;;;;;;;;;;;2197101;66;1946;-20
2024/02/24 01:37:25;;;;;;;;;;;;;;;;;;2197669;66;2333;-20
2024/02/24 01:39:56;;;;;;;;;;;;;;;;;;2198892;59;2755;-19
2024/02/24 01:42:27;;;;;;;;;;;;;;;;;;2198587;66;1909;-19
2024/02/24 01:44:58;;;;;;;;;;;;;;;;;;2200566;58;2861;-19
2024/02/24 01:47:28;;;;;;;;;;;;;;;;;;2199803;66;2369;-19
2024/02/24 01:50:00;;;;;;;;;;;;;;;;;;2201078;66;2468;-19
2024/02/24 01:52:32;;;;;;;;;;;;;;;;;;2199831;66;2874;-19
2024/02/24 01:55:03;;;;;;;;;;;;;;;;;;2200239;66;3028;-19
2024/02/24 01:57:38;;;;;;;;;;;;;;;;;;2200866;66;1913;-19
2024/02/24 02:00:09;;;;;;;;;;;;;;;;;;2198482;66;1899;-19
2024/02/24 02:02:40;;;;;;;;;;;;;;;;;;2198634;59;1962;-19
2024/02/24 02:05:11;;;;;;;;;;;;;;;;;;2199707;66;2586;-20
2024/02/24 02:07:45;;;;;;;;;;;;;;;;;;2201025;66;2226;-19
2024/02/24 02:10:18;;;;;;;;;;;;;;;;;;2199259;66;1807;-20
2024/02/24 02:12:50;;;;;;;;;;;;;;;;;;2211607;66;3164;-20
2024/02/24 02:15:20;;;;;;;;;;;;;;;;;;2199759;59;2706;-19
2024/02/24 02:17:54;;;;;;;;;;;;;;;;;;2197870;66;2740;-19
2024/02/24 02:20:24;;;;;;;;;;;;;;;;;;2199596;66;3049;-19
2024/02/24 02:22:55;;;;;;;;;;;;;;;;;;2200939;66;2965;-19
2024/02/24 02:25:26;;;;;;;;;;;;;;;;;;2199266;66;1881;-19
2024/02/24 02:27:57;;;;;;;;;;;;;;;;;;2199813;66;2355;-20
2024/02/24 02:30:27;;;;;;;;;;;;;;;;;;2200524;66;3046;-20
2024/02/24 02:32:59;;;;;;;;;;;;;;;;;;2199724;59;2427;-20
2024/02/24 02:35:30;;;;;;;;;;;;;;;;;;2195728;66;2021;-20
2024/02/24 02:38:01;;;;;;;;;;;;;;;;;;2194588;67;1713;-20
2024/02/24 02:40:36;;;;;;;;;;;;;;;;;;2199378;59;2850;-20
2024/02/24 02:43:07;;;;;;;;;;;;;;;;;;2195850;66;2731;-20
2024/02/24 02:45:37;;;;;;;;;;;;;;;;;;2199511;59;2501;-20
2024/02/24 02:48:08;;;;;;;;;;;;;;;;;;2196888;66;2769;-20
2024/02/24 02:50:38;;;;;;;;;;;;;;;;;;2200025;66;2806;-19
2024/02/24 02:53:09;;;;;;;;;;;;;;;;;;2199264;66;1933;-23
2024/02/24 02:55:40;;;;;;;;;;;;;;;;;;2200002;66;3119;-19
2024/02/24 02:58:11;;;;;;;;;;;;;;;;;;2200378;66;1805;-19
2024/02/24 03:00:43;;;;;;;;;;;;;;;;;;2200561;66;2396;-20
2024/02/24 03:03:14;;;;;;;;;;;;;;;;;;2198102;66;2410;-20
2024/02/24 03:05:44;;;;;;;;;;;;;;;;;;2199183;66;1910;-19
2024/02/24 03:08:15;;;;;;;;;;;;;;;;;;2197398;66;1972;-20
2024/02/24 03:10:45;;;;;;;;;;;;;;;;;;2200541;66;2733;-20
2024/02/24 03:13:15;;;;;;;;;;;;;;;;;;2199487;66;2176;-20
2024/02/24 03:15:46;;;;;;;;;;;;;;;;;;2200186;66;2660;-19
2024/02/24 03:18:16;;;;;;;;;;;;;;;;;;2200267;66;2842;-19
2024/02/24 03:20:48;;;;;;;;;;;;;;;;;;2197165;66;3155;-20
2024/02/24 03:23:18;;;;;;;;;;;;;;;;;;2200108;66;2856;-19
2024/02/24 03:25:48;;;;;;;;;;;;;;;;;;2199580;66;2775;-19
2024/02/24 03:28:19;;;;;;;;;;;;;;;;;;2198979;66;1960;-19
2024/02/24 03:30:50;;;;;;;;;;;;;;;;;;2199366;66;2568;-20
2024/02/24 03:33:22;;;;;;;;;;;;;;;;;;2199067;58;2494;-20
2024/02/24 03:35:52;;;;;;;;;;;;;;;;;;2200083;66;1790;-20
2024/02/24 03:38:23;;;;;;;;;;;;;;;;;;2198429;66;2411;-20
2024/02/24 03:40:53;;;;;;;;;;;;;;;;;;2200086;59;2953;-19
2024/02/24 03:43:25;;;;;;;;;;;;;;;;;;2198834;66;1831;-19
2024/02/24 03:45:55;;;;;;;;;;;;;;;;;;2199635;59;2046;-19
2024/02/24 03:48:26;;;;;;;;;;;;;;;;;;2198559;66;2930;-19
2024/02/24 03:50:56;;;;;;;;;;;;;;;;;;2199218;66;2168;-19
2024/02/24 03:53:30;;;;;;;;;;;;;;;;;;2199123;66;2422;-19
2024/02/24 03:56:01;;;;;;;;;;;;;;;;;;2195474;66;2774;-20
2024/02/24 03:58:31;;;;;;;;;;;;;;;;;;2198854;66;2752;-19
2024/02/24 04:01:02;;;;;;;;;;;;;;;;;;2201057;66;1912;-20
2024/02/24 04:03:33;;;;;;;;;;;;;;;;;;2198750;66;2026;-19
2024/02/24 04:06:04;;;;;;;;;;;;;;;;;;2200984;66;1763;-19
2024/02/24 04:08:38;;;;;;;;;;;;;;;;;;2198579;66;3541;-19
2024/02/24 04:11:11;;;;;;;;;;;;;;;;;;2205849;59;2218;-19
2024/02/24 04:13:43;;;;;;;;;;;;;;;;;;2200033;59;2615;-36
2024/02/24 04:16:17;;;;;;;;;;;;;;;;;;2200105;66;1672;-19
2024/02/24 04:18:48;;;;;;;;;;;;;;;;;;2198858;66;3429;-19
2024/02/24 04:21:21;;;;;;;;;;;;;;;;;;2199927;66;2099;-19
2024/02/24 04:24:10;;;;;;;;;;;;;;;;;;2199667;66;2260;-19
2024/02/24 04:26:41;;;;;;;;;;;;;;;;;;2199298;53;2447;-21
2024/02/24 04:29:13;;;;;;;;;;;;;;;;;;2189644;59;1905;-21
2024/02/24 04:31:43;;;;;;;;;;;;;;;;;;2188280;59;2155;-22
2024/02/24 04:34:13;;;;;;;;;;;;;;;;;;2186687;67;1712;-22
2024/02/24 04:36:44;;;;;;;;;;;;;;;;;;2187540;59;1885;-21
2024/02/24 04:39:14;;;;;;;;;;;;;;;;;;2181632;59;3063;-22
2024/02/24 04:41:50;;;;;;;;;;;;;;;;;;2184673;67;2063;-22
2024/02/24 04:44:20;;;;;;;;;;;;;;;;;;2185976;59;1955;-21
2024/02/24 04:46:50;;;;;;;;;;;;;;;;;;2185964;59;2752;-21
2024/02/24 04:49:22;;;;;;;;;;;;;;;;;;2185076;67;2781;-22
2024/02/24 04:51:52;;;;;;;;;;;;;;;;;;2184242;67;2003;-22
2024/02/24 04:54:29;;;;;;;;;;;;;;;;;;2184736;67;1939;-22
2024/02/24 04:56:59;;;;;;;;;;;;;;;;;;2184465;67;2534;-22
2024/02/24 04:59:30;;;;;;;;;;;;;;;;;;2184455;59;2375;-22
2024/02/24 05:02:00;;;;;;;;;;;;;;;;;;2186242;67;2088;-22
2024/02/24 05:04:31;;;;;;;;;;;;;;;;;;2184123;59;2733;-22
2024/02/24 05:07:01;;;;;;;;;;;;;;;;;;2185736;67;1999;-22
2024/02/24 05:09:33;;;;;;;;;;;;;;;;;;2185002;59;1997;-22
2024/02/24 05:12:03;;;;;;;;;;;;;;;;;;2188947;67;1954;-22
2024/02/24 05:14:33;;;;;;;;;;;;;;;;;;2182189;67;2747;-22
2024/02/24 05:17:07;;;;;;;;;;;;;;;;;;2185434;67;2292;-23
2024/02/24 05:19:37;;;;;;;;;;;;;;;;;;2184946;67;1827;-22
2024/02/24 05:22:08;;;;;;;;;;;;;;;;;;2186160;59;1928;-22
2024/02/24 05:24:38;;;;;;;;;;;;;;;;;;2184632;67;2432;-22
2024/02/24 05:27:08;;;;;;;;;;;;;;;;;;2185129;59;1777;-22
2024/02/24 05:29:49;;;;;;;;;;;;;;;;;;2202712;67;2711;-22
2024/02/24 05:32:19;;;;;;;;;;;;;;;;;;2204624;67;1944;-22
2024/02/24 05:34:55;;;;;;;;;;;;;;;;;;2204563;59;1997;-22
2024/02/24 05:37:25;;;;;;;;;;;;;;;;;;2188969;67;2990;-22
2024/02/24 05:39:58;;;;;;;;;;;;;;;;;;2200420;59;3082;-22
2024/02/24 05:42:31;;;;;;;;;;;;;;;;;;2203573;59;1783;-22
2024/02/24 05:45:02;;;;;;;;;;;;;;;;;;2204980;59;2553;-22
2024/02/24 05:47:33;;;;;;;;;;;;;;;;;;2199845;67;1953;-22
2024/02/24 05:50:04;;;;;;;;;;;;;;;;;;2202023;67;2007;-22
2024/02/24 05:52:35;;;;;;;;;;;;;;;;;;2199113;67;2073;-22
2024/02/24 05:55:07;;;;;;;;;;;;;;;;;;2200788;59;2006;-23
2024/02/24 05:57:38;;;;;;;;;;;;;;;;;;2200581;67;3101;-22
2024/02/24 06:00:11;;;;;;;;;;;;;;;;;;2204639;67;2394;-22
2024/02/24 06:02:43;;;;;;;;;;;;;;;;;;2203411;59;2872;-22
2024/02/24 06:05:14;;;;;;;;;;;;;;;;;;2198743;67;1787;-22
2024/02/24 06:07:45;;;;;;;;;;;;;;;;;;2204328;67;2091;-22
2024/02/24 06:10:15;;;;;;;;;;;;;;;;;;2211502;67;2055;-23
2024/02/24 06:12:47;;;;;;;;;;;;;;;;;;2204893;67;2001;-23
2024/02/24 06:15:17;;;;;;;;;;;;;;;;;;2202422;59;1770;-23
2024/02/24 06:17:47;;;;;;;;;;;;;;;;;;2198794;67;1847;-22
2024/02/24 06:20:17;;;;;;;;;;;;;;;;;;2202162;67;2529;-22
2024/02/24 06:22:48;;;;;;;;;;;;;;;;;;2202631;67;2581;-22
2024/02/24 06:25:19;;;;;;;;;;;;;;;;;;2204651;67;1791;-22
2024/02/24 06:27:51;;;;;;;;;;;;;;;;;;2203564;59;2297;-22
2024/02/24 06:30:21;;;;;;;;;;;;;;;;;;2204858;67;2479;-23
2024/02/24 06:32:51;;;;;;;;;;;;;;;;;;2204310;67;3433;-23
2024/02/24 06:35:21;;;;;;;;;;;;;;;;;;2202337;59;1825;-22
2024/02/24 06:37:51;;;;;;;;;;;;;;;;;;2203499;59;2256;-22
2024/02/24 06:40:22;;;;;;;;;;;;;;;;;;2199042;60;2064;-22
2024/02/24 06:42:53;;;;;;;;;;;;;;;;;;2203232;67;1851;-22
2024/02/24 06:45:27;;;;;;;;;;;;;;;;;;2204507;59;2139;-22
2024/02/24 06:48:00;;;;;;;;;;;;;;;;;;2199513;67;2425;-22
2024/02/24 06:50:30;;;;;;;;;;;;;;;;;;2204825;67;1937;-22
2024/02/24 06:53:01;;;;;;;;;;;;;;;;;;2203336;59;2072;-22
2024/02/24 06:55:33;;;;;;;;;;;;;;;;;;2204014;62;2029;-22
2024/02/24 06:58:04;;;;;;;;;;;;;;;;;;2203461;66;1991;-22
2024/02/24 07:00:35;;;;;;;;;;;;;;;;;;2202902;67;1905;-22
2024/02/24 07:03:05;;;;;;;;;;;;;;;;;;2203173;59;1868;-22
2024/02/24 07:05:35;;;;;;;;;;;;;;;;;;2202527;67;2429;-22
2024/02/24 07:08:06;;;;;;;;;;;;;;;;;;2203699;67;3422;-23
2024/02/24 07:10:36;;;;;;;;;;;;;;;;;;2200435;67;1913;-23
2024/02/24 07:13:06;;;;;;;;;;;;;;;;;;2201360;59;2020;-22
2024/02/24 07:15:36;;;;;;;;;;;;;;;;;;2203204;59;1972;-23
2024/02/24 07:18:07;;;;;;;;;;;;;;;;;;2198835;67;1874;-23
2024/02/24 07:20:37;;;;;;;;;;;;;;;;;;2203075;67;1802;-23
2024/02/24 07:23:08;;;;;;;;;;;;;;;;;;2200316;67;1842;-23
2024/02/24 07:25:38;;;;;;;;;;;;;;;;;;2202824;67;1966;-23
2024/02/24 07:28:09;;;;;;;;;;;;;;;;;;2204448;59;1757;-23
2024/02/24 07:30:40;;;;;;;;;;;;;;;;;;2204509;67;1843;-23
2024/02/24 07:33:11;;;;;;;;;;;;;;;;;;2203229;67;1936;-23
2024/02/24 07:35:42;;;;;;;;;;;;;;;;;;2203310;59;1993;-23
2024/02/24 07:38:14;;;;;;;;;;;;;;;;;;2204816;59;1988;-23
2024/02/24 07:43:42;;;;;;;;;;;;;;;;;;2202630;67;2470;-23
2024/02/24 07:46:27;;;;;;;;;;;;;;;;;;2202075;59;2424;-22
2024/02/24 07:48:59;;;;;;;;;;;;;;;;;;2203611;59;3225;-22
2024/02/24 07:51:30;;;;;;;;;;;;;;;;;;2203727;59;1945;-22
2024/02/24 07:54:01;;;;;;;;;;;;;;;;;;2203603;67;1857;-22
2024/02/24 07:56:33;;;;;;;;;;;;;;;;;;2204483;67;1760;-22
2024/02/24 07:59:03;;;;;;;;;;;;;;;;;;2203277;59;2588;-23
2024/02/24 08:01:35;;;;;;;;;;;;;;;;;;2203863;67;1807;-23
2024/02/24 08:04:06;;;;;;;;;;;;;;;;;;2202410;67;2007;-23
2024/02/24 08:06:36;;;;;;;;;;;;;;;;;;2204196;67;1984;-23
2024/02/24 08:09:07;;;;;;;;;;;;;;;;;;2203528;67;2221;-23
2024/02/24 08:11:40;;;;;;;;;;;;;;;;;;2204598;59;1991;-23
2024/02/24 08:14:10;;;;;;;;;;;;;;;;;;2201099;59;1884;-23
2024/02/24 08:16:40;;;;;;;;;;;;;;;;;;2204216;67;2011;-23
2024/02/24 08:19:12;;;;;;;;;;;;;;;;;;2199681;67;1907;-23
2024/02/24 08:21:42;;;;;;;;;;;;;;;;;;2199601;67;2523;-23
2024/02/24 08:24:16;;;;;;;;;;;;;;;;;;2204540;67;1930;-23
2024/02/24 08:26:48;;;;;;;;;;;;;;;;;;2206423;59;1976;-23
2024/02/24 08:29:19;;;;;;;;;;;;;;;;;;2208712;67;2212;-23
2024/02/24 08:31:50;;;;;;;;;;;;;;;;;;2206998;67;2684;-23
2024/02/24 08:34:20;;;;;;;;;;;;;;;;;;2206783;67;2590;-23
2024/02/24 08:36:51;;;;;;;;;;;;;;;;;;2202200;59;2277;-23
2024/02/24 08:39:22;;;;;;;;;;;;;;;;;;2207331;59;2155;-23
2024/02/24 08:41:52;;;;;;;;;;;;;;;;;;2206109;59;2505;-23
2024/02/24 08:44:22;;;;;;;;;;;;;;;;;;2204864;59;2306;-23
2024/02/24 08:46:53;;;;;;;;;;;;;;;;;;2200983;59;3502;-23
2024/02/24 08:49:23;;;;;;;;;;;;;;;;;;2204429;59;2325;-23
2024/02/24 08:51:53;;;;;;;;;;;;;;;;;;2204570;59;2448;-23
2024/02/24 08:54:25;;;;;;;;;;;;;;;;;;2204854;59;2672;-23
2024/02/24 08:56:58;;;;;;;;;;;;;;;;;;2203720;59;2174;-23
2024/02/24 08:59:30;;;;;;;;;;;;;;;;;;2204390;59;2310;-23
2024/02/24 09:02:00;;;;;;;;;;;;;;;;;;2202989;59;2350;-23
2024/02/24 09:04:30;;;;;;;;;;;;;;;;;;2205093;59;2173;-23
2024/02/24 09:07:01;;;;;;;;;;;;;;;;;;2200698;59;3424;-23
2024/02/24 09:09:31;;;;;;;;;;;;;;;;;;2201690;59;2377;-23
2024/02/24 09:12:01;;;;;;;;;;;;;;;;;;2202078;59;2812;-23
2024/02/24 09:14:32;;;;;;;;;;;;;;;;;;2204552;59;2394;-23
2024/02/24 09:17:03;;;;;;;;;;;;;;;;;;2203562;59;2610;-23
2024/02/24 09:19:35;;;;;;;;;;;;;;;;;;2204613;59;2346;-23
2024/02/24 09:22:05;;;;;;;;;;;;;;;;;;2201942;59;2254;-23
2024/02/24 09:24:35;;;;;;;;;;;;;;;;;;2203259;59;2001;-23
2024/02/24 09:27:07;;;;;;;;;;;;;;;;;;2203755;59;2079;-23
2024/02/24 09:29:37;;;;;;;;;;;;;;;;;;2203659;67;2231;-23
2024/02/24 09:32:17;;;;;;;;;;;;;;;;;;2201071;59;2535;-23
2024/02/24 09:34:48;;;;;;;;;;;;;;;;;;2203881;59;2199;-23
2024/02/24 09:37:19;;;;;;;;;;;;;;;;;;2204125;59;2345;-23
2024/02/24 09:39:51;;;;;;;;;;;;;;;;;;2203876;59;2135;-23
2024/02/24 09:42:28;;;;;;;;;;;;;;;;;;2205487;59;2430;-23
2024/02/24 09:44:59;;;;;;;;;;;;;;;;;;2200587;59;2094;-23
2024/02/24 09:47:30;;;;;;;;;;;;;;;;;;2203990;67;1762;-23
2024/02/24 09:50:00;;;;;;;;;;;;;;;;;;2204662;59;2138;-23
2024/02/24 09:52:32;;;;;;;;;;;;;;;;;;2203136;67;1949;-23
2024/02/24 09:55:03;;;;;;;;;;;;;;;;;;2204495;59;2216;-23
2024/02/24 09:57:35;;;;;;;;;;;;;;;;;;2206995;67;2218;-23
2024/02/24 10:00:06;;;;;;;;;;;;;;;;;;2204019;67;2158;-23
2024/02/24 10:02:36;;;;;;;;;;;;;;;;;;2205853;59;1791;-23
2024/02/24 10:05:08;;;;;;;;;;;;;;;;;;2204750;59;2121;-23
2024/02/24 10:07:39;;;;;;;;;;;;;;;;;;2204806;59;2052;-23
2024/02/24 10:10:23;;;;;;;;;;;;;;;;;;2204905;67;1831;-23
2024/02/24 10:12:57;;;;;;;;;;;;;;;;;;2204907;67;2067;-23
2024/02/24 10:15:34;;;;;;;;;;;;;;;;;;2204692;59;2289;-23
2024/02/24 10:18:06;;;;;;;;;;;;;;;;;;2204590;67;2400;-23
2024/02/24 10:20:37;;;;;;;;;;;;;;;;;;2205289;67;1834;-23
2024/02/24 10:23:11;;;;;;;;;;;;;;;;;;2204265;67;2288;-23
2024/02/24 10:25:41;;;;;;;;;;;;;;;;;;2204544;59;2366;-23
2024/02/24 10:28:13;;;;;;;;;;;;;;;;;;2204752;59;2578;-23
2024/02/24 10:30:45;;;;;;;;;;;;;;;;;;2204812;59;2631;-23
2024/02/24 10:33:16;;;;;;;;;;;;;;;;;;2201663;59;2534;-24
2024/02/24 10:35:50;;;;;;;;;;;;;;;;;;2205149;59;1645;-23
2024/02/24 10:38:21;;;;;;;;;;;;;;;;;;2204093;59;2589;-23
2024/02/24 10:40:53;;;;;;;;;;;;;;;;;;2201247;59;2198;-23
2024/02/24 10:43:25;;;;;;;;;;;;;;;;;;2204643;59;1844;-23
2024/02/24 10:45:55;;;;;;;;;;;;;;;;;;2204274;59;2813;-23
2024/02/24 10:48:26;;;;;;;;;;;;;;;;;;2204363;59;2389;-23
2024/02/24 10:50:57;;;;;;;;;;;;;;;;;;2201889;59;1935;-23
2024/02/24 10:53:31;;;;;;;;;;;;;;;;;;2205287;59;2366;-24
2024/02/24 10:56:06;;;;;;;;;;;;;;;;;;2204202;59;2225;-24
2024/02/24 10:58:39;;;;;;;;;;;;;;;;;;2205453;59;2414;-24
2024/02/24 11:01:09;;;;;;;;;;;;;;;;;;2201119;59;2407;-24
2024/02/24 11:03:39;;;;;;;;;;;;;;;;;;2202479;59;1786;-24
2024/02/24 11:06:13;;;;;;;;;;;;;;;;;;2204546;67;2219;-24
2024/02/24 11:08:44;;;;;;;;;;;;;;;;;;2205826;67;2451;-24
2024/02/24 11:11:14;;;;;;;;;;;;;;;;;;2201212;59;2612;-24
2024/02/24 11:13:48;;;;;;;;;;;;;;;;;;2204733;59;2328;-25
2024/02/24 11:16:20;;;;;;;;;;;;;;;;;;2204141;59;2555;-24
2024/02/24 11:18:52;;;;;;;;;;;;;;;;;;2203174;59;2379;-24
2024/02/24 11:21:50;;;;;;;;;;;;;;;;;;2204158;59;2838;-24
2024/02/24 11:24:21;;;;;;;;;;;;;;;;;;2203524;59;2762;-24
2024/02/24 11:26:51;;;;;;;;;;;;;;;;;;2204485;59;2584;-24
2024/02/24 11:29:24;;;;;;;;;;;;;;;;;;2203338;59;2909;-24
2024/02/24 11:32:16;;;;;;;;;;;;;;;;;;2204071;59;2144;-24
2024/02/24 11:34:50;;;;;;;;;;;;;;;;;;2200208;59;2427;-24
2024/02/24 11:37:24;;;;;;;;;;;;;;;;;;2198875;59;2641;-24
2024/02/24 11:39:59;;;;;;;;;;;;;;;;;;2204943;59;2261;-24
2024/02/24 11:42:31;;;;;;;;;;;;;;;;;;2203632;59;2461;-24
2024/02/24 11:45:02;;;;;;;;;;;;;;;;;;2204118;59;2456;-24
2024/02/24 11:47:35;;;;;;;;;;;;;;;;;;2205125;67;1217;-24
2024/02/24 11:50:05;;;;;;;;;;;;;;;;;;2204750;59;2216;-24
2024/02/24 11:52:36;;;;;;;;;;;;;;;;;;2201755;67;1999;-24
2024/02/24 11:55:06;;;;;;;;;;;;;;;;;;2201562;59;1612;-24
2024/02/24 11:57:37;;;;;;;;;;;;;;;;;;2202283;67;1281;-24
2024/02/24 12:00:07;;;;;;;;;;;;;;;;;;2203759;64;2177;-24
2024/02/24 12:02:37;;;;;;;;;;;;;;;;;;2201638;60;1719;-23
2024/02/24 12:05:14;;;;;;;;;;;;;;;;;;2203136;59;2006;-24
2024/02/24 12:07:44;;;;;;;;;;;;;;;;;;2204234;67;1204;-24
2024/02/24 12:10:18;;;;;;;;;;;;;;;;;;2204362;67;1646;-24
2024/02/24 12:12:48;;;;;;;;;;;;;;;;;;2201373;67;2341;-23
2024/02/24 12:15:21;;;;;;;;;;;;;;;;;;2205131;59;1389;-24
2024/02/24 12:17:52;;;;;;;;;;;;;;;;;;2198440;59;2243;-24
2024/02/24 12:20:26;;;;;;;;;;;;;;;;;;2205212;59;1520;-23
2024/02/24 12:23:05;;;;;;;;;;;;;;;;;;2205503;67;1185;-23
2024/02/24 12:25:50;;;;;;;;;;;;;;;;;;2200768;67;1274;-24
2024/02/24 12:28:22;;;;;;;;;;;;;;;;;;2202110;59;2048;-24
2024/02/24 12:30:54;;;;;;;;;;;;;;;;;;2204440;67;1376;-24
2024/02/24 12:33:24;;;;;;;;;;;;;;;;;;2203699;67;2003;-24
2024/02/24 12:35:54;;;;;;;;;;;;;;;;;;2204490;59;2343;-24
2024/02/24 12:38:24;;;;;;;;;;;;;;;;;;2202666;59;2278;-24
2024/02/24 12:40:58;;;;;;;;;;;;;;;;;;2202888;59;2368;-24
2024/02/24 12:43:31;;;;;;;;;;;;;;;;;;2203960;59;2418;-24
2024/02/24 12:46:06;;;;;;;;;;;;;;;;;;2203653;59;2060;-24
2024/02/24 12:48:36;;;;;;;;;;;;;;;;;;2201755;67;1568;-24
2024/02/24 12:51:06;;;;;;;;;;;;;;;;;;2199918;59;2189;-24
2024/02/24 12:53:38;;;;;;;;;;;;;;;;;;2205117;59;2291;-24
2024/02/24 12:56:08;;;;;;;;;;;;;;;;;;2203377;59;2521;-24
2024/02/24 12:58:38;;;;;;;;;;;;;;;;;;2205231;67;2577;-24
2024/02/24 13:01:09;;;;;;;;;;;;;;;;;;2202626;59;2376;-24
2024/02/24 13:03:40;;;;;;;;;;;;;;;;;;2200926;59;2397;-24
2024/02/24 13:06:10;;;;;;;;;;;;;;;;;;2203381;59;2819;-24
2024/02/24 13:08:41;;;;;;;;;;;;;;;;;;2204309;59;2245;-24
2024/02/24 13:11:11;;;;;;;;;;;;;;;;;;2200860;59;2385;-24
2024/02/24 13:13:41;;;;;;;;;;;;;;;;;;2204190;59;2761;-24
2024/02/24 13:16:15;;;;;;;;;;;;;;;;;;2200166;59;2386;-24
2024/02/24 13:18:45;;;;;;;;;;;;;;;;;;2201803;67;2446;-24
2024/02/24 13:21:15;;;;;;;;;;;;;;;;;;2203458;59;2390;-24
2024/02/24 13:23:53;;;;;;;;;;;;;;;;;;2202255;59;2750;-24
2024/02/24 13:26:23;;;;;;;;;;;;;;;;;;2205262;59;1600;-24
2024/02/24 13:28:53;;;;;;;;;;;;;;;;;;2201432;67;1766;-24
2024/02/24 13:31:24;;;;;;;;;;;;;;;;;;2201640;59;2431;-24
2024/02/24 13:33:56;;;;;;;;;;;;;;;;;;2203278;59;2647;-24
2024/02/24 13:36:31;;;;;;;;;;;;;;;;;;2204491;59;2286;-24
2024/02/24 13:39:01;;;;;;;;;;;;;;;;;;2205269;59;2398;-24
2024/02/24 13:41:32;;;;;;;;;;;;;;;;;;2203967;59;2317;-23
2024/02/24 13:44:05;;;;;;;;;;;;;;;;;;2204570;59;2713;-24
2024/02/24 13:46:35;;;;;;;;;;;;;;;;;;2205560;59;2167;-24
2024/02/24 13:49:06;;;;;;;;;;;;;;;;;;2203398;59;2311;-24
2024/02/24 13:51:36;;;;;;;;;;;;;;;;;;2204826;59;2089;-24
2024/02/24 13:54:07;;;;;;;;;;;;;;;;;;2204145;59;1977;-24
2024/02/24 13:56:39;;;;;;;;;;;;;;;;;;2205551;67;2394;-24
2024/02/24 13:59:09;;;;;;;;;;;;;;;;;;2203795;67;1641;-24
2024/02/24 14:01:39;;;;;;;;;;;;;;;;;;2206140;59;1484;-24
2024/02/24 14:04:11;;;;;;;;;;;;;;;;;;2204951;59;1738;-24
2024/02/24 14:06:43;;;;;;;;;;;;;;;;;;2204755;59;1604;-24
2024/02/24 14:09:13;;;;;;;;;;;;;;;;;;2203194;59;2471;-24
2024/02/24 14:11:44;;;;;;;;;;;;;;;;;;2204051;59;2424;-24
2024/02/24 14:14:14;;;;;;;;;;;;;;;;;;2203379;59;2574;-24
2024/02/24 14:16:45;;;;;;;;;;;;;;;;;;2204065;67;2716;-24
2024/02/24 14:19:15;;;;;;;;;;;;;;;;;;2203494;67;2193;-24
2024/02/24 14:21:47;;;;;;;;;;;;;;;;;;2208261;59;2148;-24
2024/02/24 14:24:17;;;;;;;;;;;;;;;;;;2209297;67;1397;-24
2024/02/24 14:26:47;;;;;;;;;;;;;;;;;;2210847;59;1785;-24
2024/02/24 14:29:18;;;;;;;;;;;;;;;;;;2208225;59;1453;-24
2024/02/24 14:31:48;;;;;;;;;;;;;;;;;;2205893;67;1930;-24
2024/02/24 14:34:20;;;;;;;;;;;;;;;;;;2205174;67;1456;-24
2024/02/24 14:36:50;;;;;;;;;;;;;;;;;;2204739;67;1444;-24
2024/02/24 14:39:22;;;;;;;;;;;;;;;;;;2203115;59;2294;-24
2024/02/24 14:41:52;;;;;;;;;;;;;;;;;;2201690;67;2852;-24
2024/02/24 14:44:22;;;;;;;;;;;;;;;;;;2203562;59;2552;-24
2024/02/24 14:46:53;;;;;;;;;;;;;;;;;;2201591;59;1623;-24
2024/02/24 14:49:24;;;;;;;;;;;;;;;;;;2203592;67;1613;-24
2024/02/24 14:51:55;;;;;;;;;;;;;;;;;;2203965;67;1997;-24
2024/02/24 14:54:26;;;;;;;;;;;;;;;;;;2203884;67;2305;-24
2024/02/24 14:56:59;;;;;;;;;;;;;;;;;;2204762;59;1515;-24
2024/02/24 14:59:31;;;;;;;;;;;;;;;;;;2203426;67;2481;-24
2024/02/24 15:02:01;;;;;;;;;;;;;;;;;;2203701;59;2459;-24
2024/02/24 15:04:32;;;;;;;;;;;;;;;;;;2199941;59;2767;-24
2024/02/24 15:07:04;;;;;;;;;;;;;;;;;;2202794;59;2589;-24
2024/02/24 15:09:35;;;;;;;;;;;;;;;;;;2197456;59;2651;-24
2024/02/24 15:12:06;;;;;;;;;;;;;;;;;;2200314;59;2436;-23
2024/02/24 15:14:36;;;;;;;;;;;;;;;;;;2201932;59;2556;-24
2024/02/24 15:17:06;;;;;;;;;;;;;;;;;;2206133;67;2279;-24
2024/02/24 15:19:40;;;;;;;;;;;;;;;;;;2203940;59;2166;-24
2024/02/24 15:22:11;;;;;;;;;;;;;;;;;;2204527;59;2290;-24
2024/02/24 15:24:41;;;;;;;;;;;;;;;;;;2205159;59;2157;-24
2024/02/24 15:27:12;;;;;;;;;;;;;;;;;;2202293;59;2409;-23
2024/02/24 15:29:42;;;;;;;;;;;;;;;;;;2202478;59;2281;-24
2024/02/24 15:32:15;;;;;;;;;;;;;;;;;;2204769;59;2564;-24
2024/02/24 15:34:45;;;;;;;;;;;;;;;;;;2198328;59;2345;-24
2024/02/24 15:37:16;;;;;;;;;;;;;;;;;;2199798;59;2947;-23
2024/02/24 15:39:46;;;;;;;;;;;;;;;;;;2200003;59;2785;-24
2024/02/24 15:42:16;;;;;;;;;;;;;;;;;;2200230;59;2448;-24
2024/02/24 15:44:48;;;;;;;;;;;;;;;;;;2202501;59;2896;-23
2024/02/24 15:47:18;;;;;;;;;;;;;;;;;;2202130;59;2469;-23
2024/02/24 15:49:49;;;;;;;;;;;;;;;;;;2199948;59;2368;-23
2024/02/24 15:52:19;;;;;;;;;;;;;;;;;;2204281;59;2440;-23
2024/02/24 15:54:50;;;;;;;;;;;;;;;;;;2201901;67;2275;-23
2024/02/24 15:57:20;;;;;;;;;;;;;;;;;;2204024;67;1331;-23
2024/02/24 15:59:52;;;;;;;;;;;;;;;;;;2204858;67;1169;-23
2024/02/24 16:02:22;;;;;;;;;;;;;;;;;;2203675;67;1159;-23
2024/02/24 16:04:52;;;;;;;;;;;;;;;;;;2205177;67;1368;-23
2024/02/24 16:07:22;;;;;;;;;;;;;;;;;;2203795;67;1282;-23
2024/02/24 16:09:58;;;;;;;;;;;;;;;;;;2202201;67;1868;-23
2024/02/24 16:12:28;;;;;;;;;;;;;;;;;;2203952;67;1932;-23
2024/02/24 16:14:59;;;;;;;;;;;;;;;;;;2204497;67;1575;-23
2024/02/24 16:17:29;;;;;;;;;;;;;;;;;;2204541;59;1433;-23
2024/02/24 16:20:01;;;;;;;;;;;;;;;;;;2205353;67;1268;-23
2024/02/24 16:22:32;;;;;;;;;;;;;;;;;;2204501;67;1449;-23
2024/02/24 16:25:02;;;;;;;;;;;;;;;;;;2201567;59;1679;-23
2024/02/24 16:27:34;;;;;;;;;;;;;;;;;;2204022;59;1388;-23
2024/02/24 16:30:05;;;;;;;;;;;;;;;;;;2203284;59;2148;-23
2024/02/24 16:32:36;;;;;;;;;;;;;;;;;;2203798;59;1943;-23
2024/02/24 16:35:06;;;;;;;;;;;;;;;;;;2203818;59;1572;-23
2024/02/24 16:37:40;;;;;;;;;;;;;;;;;;2201285;59;2032;-23
2024/02/24 16:40:10;;;;;;;;;;;;;;;;;;2203979;59;1820;-23
2024/02/24 16:42:41;;;;;;;;;;;;;;;;;;2201072;67;1992;-23
2024/02/24 16:45:11;;;;;;;;;;;;;;;;;;2203858;59;3315;-23
2024/02/24 16:47:41;;;;;;;;;;;;;;;;;;2201610;67;1189;-23
2024/02/24 16:50:12;;;;;;;;;;;;;;;;;;2201247;67;1344;-23
2024/02/24 16:52:42;;;;;;;;;;;;;;;;;;2204869;67;1947;-23
2024/02/24 16:55:13;;;;;;;;;;;;;;;;;;2205219;67;1360;-23
2024/02/24 16:57:43;;;;;;;;;;;;;;;;;;2202419;67;2347;-23
2024/02/24 17:00:13;;;;;;;;;;;;;;;;;;2205037;67;1620;-23
2024/02/24 17:02:44;;;;;;;;;;;;;;;;;;2205185;59;1225;-23
2024/02/24 17:05:18;;;;;;;;;;;;;;;;;;2205420;67;1748;-23
2024/02/24 17:07:52;;;;;;;;;;;;;;;;;;2204117;67;1267;-23
2024/02/24 17:10:22;;;;;;;;;;;;;;;;;;2203370;67;1636;-23
2024/02/24 17:12:59;;;;;;;;;;;;;;;;;;2205236;59;1990;-22
2024/02/24 17:15:45;;;;;;;;;;;;;;;;;;2202276;59;1679;-23
2024/02/24 17:18:18;;;;;;;;;;;;;;;;;;2204578;59;1698;-22
2024/02/24 17:20:54;;;;;;;;;;;;;;;;;;2205208;59;1624;-22
2024/02/24 17:23:24;;;;;;;;;;;;;;;;;;2205024;67;1249;-22
2024/02/24 17:25:54;;;;;;;;;;;;;;;;;;2205353;67;1392;-23
2024/02/24 17:28:25;;;;;;;;;;;;;;;;;;2201326;59;1562;-22
2024/02/24 17:30:58;;;;;;;;;;;;;;;;;;2203342;59;2435;-23
2024/02/24 17:33:29;;;;;;;;;;;;;;;;;;2199316;59;1945;-22
2024/02/24 17:36:02;;;;;;;;;;;;;;;;;;2205500;67;1652;-22